Time;durP1;ratioP1;P1;durP2;ratioP2;P2;SDS_P1;SDS_P2;PMS_P1;PMS_P2;Temp;Humidity;BMP_temperature;BMP_pressure;BME280_temperature;BME280_humidity;BME280_pressure;Samples;Min_cycle;Max_cycle;Signal;HPM_P1;HPM_P2
2022/08/25 00:02:07;;;;;;;11.35;5.07;;;;;;;18.99;75.59;98785.38;5012406;28;20038;-86
2022/08/25 00:04:34;;;;;;;10.15;5.20;;;;;;;18.99;75.58;98787.34;5012524;28;20061;-86
2022/08/25 00:07:01;;;;;;;9.27;4.93;;;;;;;18.99;75.57;98782.59;5013675;28;20034;-86
2022/08/25 00:09:27;;;;;;;11.32;5.63;;;;;;;18.98;75.47;98774.59;5013763;28;20030;-86
2022/08/25 00:11:53;;;;;;;12.27;5.53;;;;;;;18.97;75.67;98781.31;5013243;28;20033;-87
2022/08/25 00:14:29;;;;;;;9.05;5.55;;;;;;;18.95;75.63;98772.47;5014416;28;20111;-86
2022/08/25 00:16:55;;;;;;;10.13;5.65;;;;;;;18.93;75.50;98772.84;5013896;28;20034;-86
2022/08/25 00:19:24;;;;;;;12.25;5.35;;;;;;;18.91;75.56;98775.16;5013491;28;20026;-85
2022/08/25 00:21:50;;;;;;;11.05;5.57;;;;;;;18.93;75.63;98781.19;5013734;28;20681;-85
2022/08/25 00:24:19;;;;;;;9.68;5.72;;;;;;;18.89;75.61;98774.69;5013969;28;20018;-85
2022/08/25 00:26:47;;;;;;;11.35;5.38;;;;;;;18.87;75.75;98777.00;5013722;28;20049;-85
2022/08/25 00:29:13;;;;;;;9.68;5.40;;;;;;;18.85;75.80;98776.53;5013310;28;20025;-85
2022/08/25 00:31:39;;;;;;;9.10;5.25;;;;;;;18.83;75.63;98776.84;5013672;28;20029;-85
2022/08/25 00:34:12;;;;;;;10.48;5.75;;;;;;;18.81;75.77;98770.81;5012110;28;20033;-86
2022/08/25 00:36:37;;;;;;;9.68;5.22;;;;;;;18.82;75.80;98768.88;5013296;28;20030;-87
2022/08/25 00:39:05;;;;;;;13.65;5.53;;;;;;;18.82;75.83;98778.00;5012962;28;20395;-86
2022/08/25 00:41:30;;;;;;;11.98;5.20;;;;;;;18.82;75.95;98772.44;5011842;28;20029;-86
2022/08/25 00:43:59;;;;;;;12.07;5.40;;;;;;;18.85;76.04;98776.53;5013121;28;20361;-86
2022/08/25 00:46:28;;;;;;;12.00;5.78;;;;;;;18.86;76.13;98772.59;5013681;28;20028;-86
2022/08/25 00:49:01;;;;;;;11.73;5.78;;;;;;;18.89;76.12;98772.69;5012942;28;20439;-86
2022/08/25 00:51:37;;;;;;;13.32;6.85;;;;;;;18.90;76.06;98777.09;5013984;28;20054;-86
2022/08/25 00:54:06;;;;;;;12.75;6.55;;;;;;;18.93;76.28;98774.78;5013567;28;20033;-86
2022/08/25 00:56:33;;;;;;;15.65;6.95;;;;;;;18.92;76.22;98776.78;5013785;28;20435;-86
2022/08/25 00:59:00;;;;;;;14.60;6.47;;;;;;;18.90;76.17;98774.31;5013245;28;20282;-85
2022/08/25 01:01:26;;;;;;;11.40;6.05;;;;;;;18.91;76.37;98769.59;5014465;28;20036;-85
2022/08/25 01:03:51;;;;;;;14.32;5.78;;;;;;;18.94;76.63;98766.13;5011878;28;20046;-86
2022/08/25 01:06:18;;;;;;;10.50;5.70;;;;;;;18.96;76.60;98763.81;5012691;28;20361;-85
2022/08/25 01:08:44;;;;;;;10.25;5.32;;;;;;;19.00;76.58;98755.63;5013094;28;20033;-86
2022/08/25 01:11:10;;;;;;;10.52;5.63;;;;;;;19.02;76.68;98756.09;5013127;28;20113;-86
2022/08/25 01:13:43;;;;;;;12.13;5.95;;;;;;;19.04;76.75;98753.78;5012831;28;20064;-85
2022/08/25 01:16:10;;;;;;;9.30;5.50;;;;;;;19.08;76.81;98759.44;5013201;28;20037;-86
2022/08/25 01:18:52;;;;;;;12.75;6.05;;;;;;;19.11;76.89;98751.25;5012444;28;20361;-85
2022/08/25 01:21:20;;;;;;;12.48;5.80;;;;;;;19.14;76.88;98752.50;5011801;28;20551;-85
2022/08/25 01:23:47;;;;;;;13.18;6.93;;;;;;;19.15;76.87;98751.34;5013314;28;20057;-86
2022/08/25 01:26:15;;;;;;;15.30;6.75;;;;;;;19.16;77.10;98744.63;5012945;28;20108;-85
2022/08/25 01:29:19;;;;;;;14.38;7.38;;;;;;;19.16;76.97;98748.19;5012617;28;20026;-85
2022/08/25 01:31:29;;;;;;;13.95;6.20;;;;;;;19.18;77.09;98742.31;5012561;28;20100;-86
2022/08/25 01:33:55;;;;;;;11.43;6.47;;;;;;;19.18;76.96;98751.44;5012421;28;20120;-86
2022/08/25 01:36:22;;;;;;;9.98;6.50;;;;;;;19.21;76.88;98749.13;5012296;28;20026;-86
2022/08/25 01:38:48;;;;;;;12.38;7.30;;;;;;;19.22;76.87;98750.75;5012042;28;20164;-86
2022/08/25 01:41:20;;;;;;;13.68;7.13;;;;;;;19.19;76.85;98747.50;5012493;28;20026;-86
2022/08/25 01:43:45;;;;;;;15.70;7.82;;;;;;;19.19;76.94;98752.28;5012159;28;20024;-86
2022/08/25 01:46:11;;;;;;;15.25;7.88;;;;;;;19.19;76.90;98749.50;5012315;28;20105;-86
2022/08/25 01:48:37;;;;;;;16.42;7.85;;;;;;;19.15;77.10;98743.81;5011353;28;20014;-86
2022/08/25 01:51:03;;;;;;;17.20;8.05;;;;;;;19.15;77.03;98743.81;5012605;28;20018;-86
2022/08/25 01:53:30;;;;;;;12.52;7.20;;;;;;;19.16;77.06;98737.09;5010791;28;20053;-87
2022/08/25 01:56:04;;;;;;;12.50;7.18;;;;;;;19.17;77.08;98738.72;5011894;28;20026;-87
2022/08/25 01:58:33;;;;;;;14.60;8.02;;;;;;;19.17;77.14;98741.47;5011603;28;20041;-86
2022/08/25 02:01:02;;;;;;;13.98;7.43;;;;;;;19.16;77.18;98745.41;5012135;28;20068;-86
2022/08/25 02:03:28;;;;;;;13.60;7.93;;;;;;;19.16;77.10;98736.28;5011015;28;20058;-91
2022/08/25 02:05:55;;;;;;;15.95;8.23;;;;;;;19.17;77.22;98743.47;5011774;28;20037;-88
2022/08/25 02:08:22;;;;;;;15.65;7.60;;;;;;;19.17;77.34;98741.47;5012312;28;20038;-88
2022/08/25 02:10:49;;;;;;;14.82;8.38;;;;;;;19.18;77.27;98745.09;5011545;28;20037;-89
2022/08/25 02:13:15;;;;;;;17.98;8.38;;;;;;;19.16;77.32;98737.09;5011682;28;20026;-82
2022/08/25 02:15:43;;;;;;;14.50;8.10;;;;;;;19.17;77.31;98744.25;5010562;28;20033;-86
2022/08/25 02:18:09;;;;;;;15.95;7.78;;;;;;;19.17;76.91;98744.25;5011382;28;20133;-88
2022/08/25 02:20:35;;;;;;;14.65;8.20;;;;;;;19.17;77.32;98737.91;5009194;28;20036;-86
2022/08/25 02:23:00;;;;;;;15.27;8.23;;;;;;;19.18;77.24;98740.31;5011443;28;20022;-87
2022/08/25 02:25:26;;;;;;;14.77;7.63;;;;;;;19.19;77.27;98749.50;5010045;28;20361;-87
2022/08/25 02:27:51;;;;;;;13.07;7.28;;;;;;;19.17;77.33;98741.47;5011514;28;20439;-87
2022/08/25 02:30:17;;;;;;;13.98;7.90;;;;;;;19.16;77.25;98739.88;5010447;28;20030;-87
2022/08/25 02:32:42;;;;;;;12.20;8.30;;;;;;;19.15;77.09;98746.59;5011318;28;20028;-87
2022/08/25 02:35:08;;;;;;;14.38;8.43;;;;;;;19.16;77.46;98747.41;5010935;28;20468;-86
2022/08/25 02:37:34;;;;;;;12.45;7.78;;;;;;;19.17;77.17;98737.91;5010362;28;20031;-86
2022/08/25 02:40:00;;;;;;;16.13;8.43;;;;;;;19.17;77.13;98738.72;5008035;28;20037;-86
2022/08/25 02:42:26;;;;;;;15.23;7.80;;;;;;;19.18;77.25;98739.53;5009720;28;20030;-86
2022/08/25 02:44:52;;;;;;;12.85;7.00;;;;;;;19.17;77.48;98733.16;5010162;28;20026;-87
2022/08/25 02:47:18;;;;;;;12.90;7.38;;;;;;;19.17;77.44;98738.72;5010205;28;20110;-86
2022/08/25 02:49:43;;;;;;;14.52;7.15;;;;;;;19.18;77.48;98729.22;5009474;28;20234;-87
2022/08/25 02:52:09;;;;;;;15.63;7.22;;;;;;;19.19;77.29;98728.06;5009770;28;20025;-87
2022/08/25 02:54:35;;;;;;;14.07;7.18;;;;;;;19.17;77.32;98721.22;5009435;28;20080;-86
2022/08/25 02:57:01;;;;;;;12.43;7.50;;;;;;;19.16;77.49;98727.94;5011002;28;20108;-87
2022/08/25 02:59:27;;;;;;;16.88;7.53;;;;;;;19.14;77.41;98731.09;5009815;28;20026;-87
2022/08/25 03:01:52;;;;;;;11.35;7.38;;;;;;;19.14;77.49;98725.53;5010465;28;20387;-87
2022/08/25 03:04:18;;;;;;;15.43;7.80;;;;;;;19.14;77.48;98719.13;5010604;28;20377;-86
2022/08/25 03:06:44;;;;;;;16.52;7.22;;;;;;;19.13;77.42;98721.13;5011059;28;20120;-86
2022/08/25 03:09:10;;;;;;;15.23;7.05;;;;;;;19.16;77.61;98717.63;5010549;28;20782;-86
2022/08/25 03:11:37;;;;;;;14.55;7.03;;;;;;;19.17;77.54;98710.91;5010582;28;20025;-86
2022/08/25 03:14:04;;;;;;;13.32;7.30;;;;;;;19.19;77.62;98719.72;5009833;28;20025;-87
2022/08/25 03:16:30;;;;;;;17.08;7.65;;;;;;;19.18;77.65;98718.09;5010808;28;20087;-86
2022/08/25 03:18:56;;;;;;;14.93;7.43;;;;;;;19.17;77.49;98721.22;5009534;28;20439;-86
2022/08/25 03:21:21;;;;;;;13.55;7.40;;;;;;;19.15;77.58;98710.47;5012723;28;20116;-86
2022/08/25 03:23:47;;;;;;;11.73;7.20;;;;;;;19.15;77.70;98715.19;5008868;28;20736;-87
2022/08/25 03:28:56;;;;;;;15.88;7.35;;;;;;;19.16;77.53;98708.47;5013765;28;20103;-86
2022/08/25 03:31:25;;;;;;;15.85;7.43;;;;;;;19.15;77.51;98707.69;5014154;28;20030;-86
2022/08/25 03:33:51;;;;;;;14.38;7.32;;;;;;;19.15;77.60;98709.63;5014163;28;20045;-86
2022/08/25 03:36:16;;;;;;;13.48;7.00;;;;;;;19.16;77.81;98708.47;5014264;28;20026;-86
2022/08/25 03:38:42;;;;;;;13.70;7.53;;;;;;;19.16;77.74;98708.47;5014130;28;20075;-87
2022/08/25 03:41:16;;;;;;;17.83;10.25;;;;;;;19.16;77.53;98709.28;5013867;28;20026;-87
2022/08/25 03:43:42;;;;;;;17.38;9.40;;;;;;;19.16;77.50;98712.06;5010705;28;20022;-86
2022/08/25 03:46:08;;;;;;;17.65;10.35;;;;;;;19.15;77.56;98712.41;5014172;28;20145;-87
2022/08/25 03:48:33;;;;;;;17.25;9.43;;;;;;;19.14;77.54;98719.13;5014124;28;20030;-87
2022/08/25 03:50:59;;;;;;;16.23;9.00;;;;;;;19.14;77.65;98719.13;5013880;28;20484;-86
2022/08/25 03:53:24;;;;;;;14.65;8.38;;;;;;;19.09;77.38;98716.59;5013477;28;20022;-86
2022/08/25 03:55:50;;;;;;;17.52;9.05;;;;;;;19.08;77.53;98724.13;5014211;28;20022;-86
2022/08/25 03:58:16;;;;;;;15.88;8.95;;;;;;;19.09;77.56;98720.19;5011580;28;20084;-87
2022/08/25 04:00:42;;;;;;;14.48;7.75;;;;;;;19.07;77.54;98713.34;5012295;28;20117;-87
2022/08/25 04:03:08;;;;;;;12.73;7.72;;;;;;;19.06;77.68;98717.28;5011159;28;20488;-87
2022/08/25 04:05:34;;;;;;;17.23;8.63;;;;;;;19.05;77.48;98719.25;5013911;28;20033;-86
2022/08/25 04:08:00;;;;;;;13.93;7.50;;;;;;;19.01;77.57;98719.13;5010335;28;20517;-86
2022/08/25 04:10:26;;;;;;;14.13;6.97;;;;;;;19.01;77.48;98721.91;5010560;28;20026;-86
2022/08/25 04:12:51;;;;;;;11.82;7.13;;;;;;;19.02;77.76;98726.31;5013329;28;20084;-84
2022/08/25 04:15:17;;;;;;;12.10;7.38;;;;;;;19.01;77.78;98716.34;5013365;28;20030;-86
2022/08/25 04:17:42;;;;;;;15.25;8.27;;;;;;;19.01;77.52;98718.31;5013463;28;20034;-87
2022/08/25 04:20:10;;;;;;;14.80;7.70;;;;;;;19.01;77.68;98719.13;5013159;28;20033;-87
2022/08/25 04:22:37;;;;;;;13.88;7.53;;;;;;;19.01;77.89;98724.69;5012455;28;20092;-87
2022/08/25 04:25:04;;;;;;;13.48;7.55;;;;;;;19.00;77.72;98725.03;5013012;28;20033;-88
2022/08/25 04:27:30;;;;;;;15.93;7.88;;;;;;;18.99;77.84;98721.44;5012928;28;20022;-84
2022/08/25 04:29:55;;;;;;;15.63;7.40;;;;;;;18.98;77.81;98721.81;5011573;28;20038;-87
2022/08/25 04:32:21;;;;;;;21.02;8.90;;;;;;;18.96;77.82;98732.44;5011491;28;20029;-86
2022/08/25 04:34:47;;;;;;;13.75;7.90;;;;;;;18.94;77.84;98730.00;5013106;28;20102;-85
2022/08/25 04:37:13;;;;;;;18.50;8.52;;;;;;;18.92;77.92;98729.53;5012596;28;20026;-85
2022/08/25 04:39:39;;;;;;;15.15;8.98;;;;;;;18.93;77.89;98731.16;5012630;28;20350;-85
2022/08/25 04:42:04;;;;;;;15.82;9.07;;;;;;;18.92;77.96;98729.53;5012466;28;20022;-87
2022/08/25 04:44:30;;;;;;;15.35;8.80;;;;;;;18.91;77.93;98736.25;5012847;28;20407;-86
2022/08/25 04:46:56;;;;;;;14.13;8.82;;;;;;;18.90;77.93;98726.28;5013118;28;20116;-86
2022/08/25 04:49:22;;;;;;;16.40;8.35;;;;;;;18.90;78.05;98723.50;5012392;28;20021;-87
2022/08/25 04:51:47;;;;;;;14.30;9.02;;;;;;;18.92;78.04;98726.75;5009283;28;20037;-84
2022/08/25 04:54:20;;;;;;;17.27;9.05;;;;;;;18.92;78.11;98731.47;5011953;28;20435;-87
2022/08/25 04:56:46;;;;;;;18.27;10.52;;;;;;;18.91;78.35;98725.13;5012396;28;20037;-85
2022/08/25 04:59:14;;;;;;;20.05;10.13;;;;;;;18.93;77.95;98716.44;5012214;28;20034;-84
2022/08/25 05:01:42;;;;;;;19.48;10.55;;;;;;;18.93;78.24;98724.78;5011565;28;20042;-80
2022/08/25 05:04:09;;;;;;;20.50;10.63;;;;;;;18.94;78.25;98723.63;5011598;28;20042;-80
2022/08/25 05:06:36;;;;;;;18.48;9.45;;;;;;;18.96;78.30;98721.34;5010277;28;20029;-80
2022/08/25 05:09:03;;;;;;;15.35;8.60;;;;;;;18.98;78.41;98721.81;5012574;28;20377;-77
2022/08/25 05:11:29;;;;;;;16.13;8.35;;;;;;;19.01;78.67;98724.69;5011988;28;20088;-78
2022/08/25 05:13:55;;;;;;;17.35;8.18;;;;;;;19.08;78.67;98723.31;5007712;28;20546;-78
2022/08/25 05:16:23;;;;;;;13.85;7.47;;;;;;;19.16;78.61;98733.50;5012042;28;20468;-78
2022/08/25 05:18:49;;;;;;;13.98;8.23;;;;;;;19.18;78.79;98729.22;5011789;28;20049;-77
2022/08/25 05:21:18;;;;;;;15.85;7.85;;;;;;;19.24;78.76;98723.41;5011935;28;20595;-77
2022/08/25 05:23:45;;;;;;;12.35;7.72;;;;;;;19.30;78.93;98719.25;5011859;28;20037;-77
2022/08/25 05:26:20;;;;;;;17.90;7.57;;;;;;;19.34;78.90;98718.22;5009753;28;20022;-78
2022/08/25 05:28:49;;;;;;;13.88;7.18;;;;;;;19.39;79.47;98717.16;5011742;28;20036;-80
2022/08/25 05:31:15;;;;;;;13.95;6.70;;;;;;;19.43;78.96;98723.66;5011581;28;20040;-79
2022/08/25 05:33:41;;;;;;;17.92;6.82;;;;;;;19.46;78.92;98722.13;5010875;28;20026;-78
2022/08/25 05:36:09;;;;;;;14.25;6.00;;;;;;;19.49;78.84;98721.44;5011162;28;20034;-79
2022/08/25 05:38:36;;;;;;;14.85;6.25;;;;;;;19.53;79.57;98719.56;5011235;28;20053;-78
2022/08/25 05:41:05;;;;;;;9.20;5.80;;;;;;;19.58;79.21;98715.72;5011240;28;20502;-78
2022/08/25 05:43:31;;;;;;;;;;;;;;;19.63;78.96;98718.28;5011305;28;20030;-76
2022/08/25 05:45:58;;;;;;;13.38;5.60;;;;;;;19.68;79.15;98717.25;5010830;28;19916;-78
2022/08/25 05:48:25;;;;;;;18.15;6.28;;;;;;;19.72;79.36;98724.53;5009219;28;20550;-77
2022/08/25 05:50:57;;;;;;;15.65;6.13;;;;;;;19.75;79.29;98709.91;5008071;28;20046;-78
2022/08/25 05:53:23;;;;;;;10.88;5.97;;;;;;;19.80;79.22;98714.41;5010859;28;20113;-77
2022/08/25 05:55:50;;;;;;;13.52;6.15;;;;;;;19.81;79.26;98713.25;5011305;28;20052;-76
2022/08/25 05:58:16;;;;;;;11.43;5.85;;;;;;;19.84;79.04;98709.75;5011670;28;20026;-78
2022/08/25 06:00:41;;;;;;;14.65;6.60;;;;;;;19.87;79.23;98713.84;5006365;28;20034;-77
2022/08/25 06:03:07;;;;;;;10.45;6.00;;;;;;;19.89;79.26;98711.53;5010264;28;20046;-77
2022/08/25 06:05:32;;;;;;;12.52;5.68;;;;;;;19.93;79.37;98710.47;5012103;28;20469;-77
2022/08/25 06:07:58;;;;;;;14.27;5.45;;;;;;;19.97;79.41;98706.97;5011524;28;20029;-75
2022/08/25 06:10:25;;;;;;;12.95;5.82;;;;;;;20.01;79.34;98702.31;5011016;28;20369;-76
2022/08/25 06:12:50;;;;;;;14.88;5.43;;;;;;;20.03;79.49;98703.59;5009798;28;20175;-77
2022/08/25 06:15:19;;;;;;;11.68;5.53;;;;;;;20.07;79.35;98698.94;5008907;28;20481;-74
2022/08/25 06:17:46;;;;;;;16.10;6.20;;;;;;;20.14;79.31;98703.91;5009976;28;20404;-76
2022/08/25 06:20:15;;;;;;;11.45;5.55;;;;;;;20.19;79.29;98709.19;5007047;28;20040;-75
2022/08/25 06:22:41;;;;;;;13.63;5.38;;;;;;;20.23;79.60;98700.97;5010273;28;20037;-75
2022/08/25 06:25:08;;;;;;;13.52;5.28;;;;;;;20.28;79.18;98711.03;4999582;28;20029;-74
2022/08/25 06:27:35;;;;;;;10.27;5.38;;;;;;;20.32;79.28;98704.41;5002844;28;20029;-78
2022/08/25 06:30:03;;;;;;;14.23;5.10;;;;;;;20.35;79.22;98716.78;4994933;28;20076;-76
2022/08/25 06:32:40;;;;;;;13.20;5.23;;;;;;;20.38;79.19;98710.50;5001869;28;20065;-76
2022/08/25 06:35:09;;;;;;;12.98;5.63;;;;;;;20.41;79.34;98704.22;5004601;28;20702;-75
2022/08/25 06:37:35;;;;;;;13.68;5.90;;;;;;;20.47;79.21;98713.97;5005454;28;20115;-75
2022/08/25 06:40:01;;;;;;;13.02;6.18;;;;;;;20.50;79.05;98723.56;5006980;28;20040;-76
2022/08/25 06:42:26;;;;;;;13.90;5.88;;;;;;;20.55;79.04;98714.16;5006320;28;20553;-77
2022/08/25 06:44:52;;;;;;;13.27;5.57;;;;;;;20.59;79.16;98710.28;5008405;28;20034;-77
2022/08/25 06:47:18;;;;;;;15.68;5.60;;;;;;;20.64;79.12;98717.56;5003559;28;20400;-76
2022/08/25 06:49:44;;;;;;;12.15;5.95;;;;;;;20.71;78.99;98714.16;5002959;28;20042;-77
2022/08/25 06:52:10;;;;;;;16.13;6.32;;;;;;;20.78;79.04;98717.19;5000477;28;20034;-78
2022/08/25 06:54:36;;;;;;;15.93;6.70;;;;;;;20.85;79.26;98716.53;5006323;28;20053;-80
2022/08/25 06:57:02;;;;;;;19.42;5.88;;;;;;;20.91;79.22;98712.31;5007771;28;20045;-80
2022/08/25 06:59:28;;;;;;;13.43;5.63;;;;;;;20.96;79.20;98707.28;5012197;28;20174;-77
2022/08/25 07:01:53;;;;;;;16.95;5.65;;;;;;;21.04;79.10;98713.03;5004325;28;20128;-77
2022/08/25 07:04:19;;;;;;;15.27;5.40;;;;;;;21.11;79.08;98713.22;5010020;28;20053;-73
2022/08/25 07:06:45;;;;;;;15.50;5.82;;;;;;;21.20;79.09;98699.06;5009300;28;20525;-74
2022/08/25 07:09:12;;;;;;;13.80;5.75;;;;;;;21.26;78.92;98711.56;5010512;28;20030;-75
2022/08/25 07:11:39;;;;;;;15.88;5.55;;;;;;;21.31;78.86;98714.09;5010925;28;20091;-74
2022/08/25 07:14:07;;;;;;;14.75;6.15;;;;;;;21.38;78.89;98717.06;5010063;28;20010;-76
2022/08/25 07:16:34;;;;;;;16.15;6.15;;;;;;;21.43;78.74;98713.16;5015401;28;20435;-78
2022/08/25 07:19:00;;;;;;;12.88;5.70;;;;;;;21.50;78.74;98716.13;5013179;28;20068;-77
2022/08/25 07:21:28;;;;;;;16.13;5.93;;;;;;;21.59;78.69;98706.75;5015839;28;20029;-78
2022/08/25 07:23:54;;;;;;;15.43;5.70;;;;;;;21.64;78.64;98709.25;5014054;28;20038;-78
2022/08/25 07:26:23;;;;;;;13.35;5.32;;;;;;;21.67;78.57;98712.16;5009738;28;20068;-75
2022/08/25 07:28:48;;;;;;;;;;;;;;;21.73;78.32;98709.88;5012255;28;20109;-74
2022/08/25 07:31:14;;;;;;;14.23;5.88;;;;;;;21.78;78.36;98709.59;5010304;28;20012;-74
2022/08/25 07:35:13;;;;;;;18.63;6.15;;;;;;;21.81;78.16;98714.44;5011405;28;20038;-76
2022/08/25 07:36:25;;;;;;;15.95;5.82;;;;;;;21.86;78.22;98710.53;5012252;28;20507;-76
2022/08/25 07:38:51;;;;;;;18.95;6.80;;;;;;;21.92;78.07;98711.88;5009190;28;20066;-79
2022/08/25 07:41:17;;;;;;;17.67;6.50;;;;;;;21.97;77.96;98713.59;5011455;28;20040;-74
2022/08/25 07:43:43;;;;;;;16.45;5.80;;;;;;;22.00;78.04;98710.06;5010605;28;20038;-75
2022/08/25 07:46:09;;;;;;;11.15;6.05;;;;;;;22.03;77.73;98711.28;5014610;28;20029;-76
2022/08/25 07:48:34;;;;;;;13.85;5.40;;;;;;;22.06;77.72;98708.56;5014173;28;20034;-75
2022/08/25 07:51:06;;;;;;;15.68;6.15;;;;;;;22.11;77.78;98702.69;5013896;28;20029;-75
2022/08/25 07:53:31;;;;;;;18.88;5.90;;;;;;;22.18;77.66;98702.03;5010826;28;20054;-75
2022/08/25 07:55:58;;;;;;;17.48;6.07;;;;;;;22.23;77.58;98700.91;5015326;28;20060;-74
2022/08/25 07:58:23;;;;;;;16.70;6.22;;;;;;;22.28;77.46;98703.41;5006456;28;20034;-75
2022/08/25 08:00:52;;;;;;;20.23;6.20;;;;;;;22.33;77.45;98696.72;5009433;28;20516;-73
2022/08/25 08:03:19;;;;;;;18.73;5.40;;;;;;;22.39;77.17;98700.81;5013895;28;20049;-75
2022/08/25 08:05:46;;;;;;;15.20;5.65;;;;;;;22.45;77.21;98699.38;5006274;28;20069;-75
2022/08/25 08:08:11;;;;;;;19.75;5.40;;;;;;;22.52;77.34;98698.69;5008208;28;20079;-74
2022/08/25 08:10:41;;;;;;;18.17;5.32;;;;;;;22.56;77.01;98703.19;5011392;28;20492;-74
2022/08/25 08:13:08;;;;;;;19.23;5.97;;;;;;;22.66;77.15;98700.94;5009314;28;20519;-74
2022/08/25 08:15:36;;;;;;;12.60;5.63;;;;;;;22.73;76.98;98699.09;5006594;28;20401;-75
2022/08/25 08:18:02;;;;;;;18.25;5.82;;;;;;;22.78;76.83;98695.16;5010324;28;20109;-75
2022/08/25 08:20:30;;;;;;;19.08;6.30;;;;;;;22.83;76.71;98702.44;4994926;28;20044;-78
2022/08/25 08:22:56;;;;;;;19.30;5.20;;;;;;;22.89;76.70;98698.16;4997870;28;20136;-75
2022/08/25 08:25:22;;;;;;;21.80;6.00;;;;;;;22.97;76.59;98699.09;5003986;28;20022;-77
2022/08/25 08:27:47;;;;;;;21.52;5.57;;;;;;;23.01;76.43;98695.16;5012039;28;20144;-79
2022/08/25 08:30:13;;;;;;;20.50;5.80;;;;;;;23.08;76.26;98694.47;5009812;28;20507;-77
2022/08/25 08:32:39;;;;;;;15.95;5.45;;;;;;;23.16;76.17;98698.19;5011871;28;20037;-78
2022/08/25 08:35:04;;;;;;;21.63;5.70;;;;;;;23.20;76.00;98694.25;5009923;28;20026;-77
2022/08/25 08:37:30;;;;;;;20.98;5.38;;;;;;;23.28;75.93;98695.19;5010447;28;20034;-76
2022/08/25 08:39:56;;;;;;;18.85;6.03;;;;;;;23.33;75.85;98696.88;5006390;28;20667;-80
2022/08/25 08:42:52;;;;;;;19.38;5.32;;;;;;;23.38;75.67;98702.16;5004839;28;20038;-74
2022/08/25 08:45:42;;;;;;;18.38;6.00;;;;;;;23.42;75.35;98699.41;5005827;28;20033;-74
2022/08/25 08:48:32;;;;;;;20.83;6.00;;;;;;;23.48;75.57;98698.69;5008905;28;20025;-75
2022/08/25 08:51:05;;;;;;;22.35;6.22;;;;;;;23.56;75.37;98699.63;5007644;28;20038;-75
2022/08/25 08:54:12;;;;;;;23.50;5.55;;;;;;;23.59;75.01;98698.06;5006890;28;20022;-76
2022/08/25 08:56:42;;;;;;;16.27;5.05;;;;;;;23.65;75.10;98696.53;5019387;28;20045;-77
2022/08/25 08:59:26;;;;;;;19.40;5.55;;;;;;;23.67;74.77;98705.38;5007303;28;20045;-76
2022/08/25 09:01:58;;;;;;;22.85;5.22;;;;;;;23.70;74.48;98698.19;5003664;28;20058;-76
2022/08/25 09:04:43;;;;;;;20.95;5.18;;;;;;;23.76;74.54;98703.09;5003611;28;20057;-75
2022/08/25 09:07:47;;;;;;;20.00;5.43;;;;;;;23.84;74.36;98700.41;5009058;28;20049;-76
2022/08/25 09:10:18;;;;;;;24.40;5.63;;;;;;;23.93;74.22;98701.72;4970487;28;20044;-76
2022/08/25 09:13:09;;;;;;;25.67;5.68;;;;;;;24.02;74.26;98700.66;5011057;28;20028;-76
2022/08/25 09:18:47;;;;;;;21.63;5.28;;;;;;;24.18;73.72;98701.25;5012000;28;20117;-76
2022/08/25 09:21:34;;;;;;;26.73;5.95;;;;;;;24.23;73.72;98692.50;5010391;28;20034;-75
2022/08/25 09:24:00;;;;;;;23.85;5.90;;;;;;;24.32;73.32;98697.00;5004024;28;20037;-74
2022/08/25 09:26:32;;;;;;;29.38;6.43;;;;;;;24.40;73.48;98692.25;5008856;28;20038;-75
2022/08/25 09:29:12;;;;;;;19.58;4.95;;;;;;;24.49;73.33;98693.56;5009073;28;20432;-76
2022/08/25 09:31:40;;;;;;;23.35;5.47;;;;;;;24.58;73.06;98692.44;5007130;28;20022;-76
2022/08/25 09:34:15;;;;;;;24.37;5.90;;;;;;;24.63;73.02;98698.53;5009345;28;20030;-75
2022/08/25 09:36:41;;;;;;;24.55;5.55;;;;;;;24.71;72.86;98692.97;5010824;28;20022;-77
2022/08/25 09:39:07;;;;;;;16.45;5.15;;;;;;;24.82;73.05;98694.72;5010454;28;20017;-77
2022/08/25 09:41:41;;;;;;;29.25;6.03;;;;;;;24.89;72.83;98693.16;5009185;28;20356;-76
2022/08/25 09:44:40;;;;;;;22.75;5.65;;;;;;;24.94;72.46;98688.00;5012457;28;20514;-76
2022/08/25 09:47:21;;;;;;;26.48;5.78;;;;;;;25.05;72.48;98690.09;5011423;28;20026;-77
2022/08/25 09:49:55;;;;;;;23.10;6.18;;;;;;;25.12;71.99;98684.53;5011887;28;20156;-76
2022/08/25 09:52:20;;;;;;;24.92;6.18;;;;;;;25.16;71.83;98681.75;5011311;28;20407;-76
2022/08/25 09:54:45;;;;;;;26.73;6.05;;;;;;;25.19;71.41;98681.00;5012293;28;20034;-77
2022/08/25 09:57:54;;;;;;;24.55;6.13;;;;;;;25.21;71.72;98685.00;5011235;28;20022;-77
2022/08/25 10:00:24;;;;;;;25.10;5.55;;;;;;;25.27;70.78;98680.66;5009419;28;20052;-76
2022/08/25 10:03:13;;;;;;;30.65;6.35;;;;;;;25.32;71.20;98687.09;5011561;28;20085;-76
2022/08/25 10:05:44;;;;;;;25.55;5.78;;;;;;;25.39;71.29;98676.69;5012062;28;20053;-75
2022/08/25 10:08:13;;;;;;;25.15;6.28;;;;;;;25.46;70.79;98673.19;5011357;28;20550;-76
2022/08/25 10:10:44;;;;;;;26.75;6.40;;;;;;;25.52;70.60;98676.41;5011064;28;20041;-76
2022/08/25 10:13:17;;;;;;;22.35;5.57;;;;;;;25.55;70.35;98668.00;5011272;28;20030;-77
2022/08/25 10:15:47;;;;;;;22.38;5.72;;;;;;;25.59;70.28;98665.22;4999484;28;20361;-73
2022/08/25 10:18:20;;;;;;;26.83;6.53;;;;;;;25.65;70.06;98662.84;5004286;28;20022;-75
2022/08/25 10:21:04;;;;;;;24.40;6.07;;;;;;;25.66;70.20;98658.84;5006364;28;20076;-74
2022/08/25 10:23:32;;;;;;;26.10;6.60;;;;;;;25.70;69.50;98656.84;5010315;28;20048;-77
2022/08/25 10:26:04;;;;;;;23.80;6.90;;;;;;;25.71;69.59;98652.84;5006403;28;20708;-76
2022/08/25 10:28:50;;;;;;;26.65;5.90;;;;;;;25.74;69.35;98645.63;5003242;28;20037;-77
2022/08/25 10:31:22;;;;;;;21.02;5.85;;;;;;;25.81;69.59;98643.66;5000604;28;20025;-77
2022/08/25 10:34:29;;;;;;;25.80;6.55;;;;;;;25.86;69.46;98646.09;5005498;28;20028;-76
2022/08/25 10:37:02;;;;;;;29.05;7.03;;;;;;;25.94;69.42;98643.28;5009066;28;20053;-76
2022/08/25 10:39:35;;;;;;;25.05;6.50;;;;;;;25.97;69.36;98646.13;5006235;28;20477;-76
2022/08/25 10:42:03;;;;;;;28.65;6.43;;;;;;;26.06;69.30;98633.72;5005867;28;20052;-76
2022/08/25 10:47:37;;;;;;;19.52;6.35;;;;;;;26.19;68.78;98646.22;5009127;28;20461;-77
2022/08/25 10:50:13;;;;;;;23.63;7.00;;;;;;;26.26;68.66;98632.19;5008878;28;20049;-77
2022/08/25 10:52:53;;;;;;;27.80;6.75;;;;;;;26.30;67.92;98640.59;5009394;28;20038;-77
2022/08/25 10:55:29;;;;;;;23.50;6.60;;;;;;;26.38;68.58;98635.81;5010205;28;20096;-76
2022/08/25 10:58:02;;;;;;;24.73;6.57;;;;;;;26.50;68.61;98634.63;5008090;28;20087;-76
2022/08/25 11:00:39;;;;;;;25.13;7.78;;;;;;;26.61;68.28;98635.44;5010646;28;20026;-77
2022/08/25 11:03:22;;;;;;;21.38;6.72;;;;;;;26.68;67.97;98632.66;5010726;28;20129;-77
2022/08/25 11:05:54;;;;;;;25.98;6.50;;;;;;;26.72;67.86;98621.38;5011034;28;20041;-77
2022/08/25 11:08:34;;;;;;;23.30;6.97;;;;;;;26.78;67.69;98627.41;5010871;28;20050;-77
2022/08/25 11:11:20;;;;;;;22.20;6.78;;;;;;;26.81;67.43;98615.34;5008917;28;20108;-78
2022/08/25 11:13:51;;;;;;;23.25;6.95;;;;;;;26.88;66.92;98615.38;5010913;28;20388;-77
2022/08/25 11:16:26;;;;;;;25.20;7.28;;;;;;;26.95;67.28;98609.75;5010564;28;20105;-76
2022/08/25 11:19:05;;;;;;;23.50;6.25;;;;;;;27.02;67.09;98612.56;5010707;28;20149;-77
2022/08/25 11:21:42;;;;;;;22.60;7.10;;;;;;;27.10;67.23;98610.53;5010929;28;20088;-77
2022/08/25 11:24:30;;;;;;;30.73;6.45;;;;;;;27.16;67.09;98605.28;5008958;28;20022;-78
2022/08/25 11:26:57;;;;;;;26.13;7.10;;;;;;;27.21;66.56;98596.41;5011039;28;20034;-76
2022/08/25 11:29:31;;;;;;;24.60;7.13;;;;;;;27.20;66.06;98594.81;5007581;28;20029;-78
2022/08/25 11:31:59;;;;;;;23.77;6.72;;;;;;;27.27;66.29;98594.81;4998897;28;20156;-78
2022/08/25 11:34:29;;;;;;;29.17;7.63;;;;;;;27.36;66.36;98591.53;5002151;28;20333;-77
2022/08/25 11:37:12;;;;;;;21.48;7.38;;;;;;;27.42;66.17;98580.69;5004057;28;20030;-77
2022/08/25 11:40:02;;;;;;;28.75;7.18;;;;;;;27.47;65.55;98580.28;5004180;28;20062;-80
2022/08/25 11:42:51;;;;;;;21.08;6.75;;;;;;;27.54;65.77;98571.78;5009513;28;20045;-76
2022/08/25 11:45:39;;;;;;;26.70;7.07;;;;;;;27.62;65.84;98566.97;5012258;28;20034;-76
2022/08/25 11:48:41;;;;;;;21.67;7.30;;;;;;;27.72;65.62;98565.28;5012451;28;20034;-76